Terminal Aerodrome Forecast
Issued by NWS Wichita, KS

Home | Current Version | Previous Version | Text Only | Print | Product List | Glossary On
Versions: 1 2 3 4 5 6 7 8 9 10 11 12 13 14 15 16 17 18 19 20
000
FTUS43 KICT 271243 AAA
TAFICT
TAF AMD
KICT 271243Z 2713/2812 06006KT P6SM SCT020 SCT050
      TEMPO 2713/2715 BKN020
     FM271700 13008KT P6SM SCT035=

USA.gov is the U.S. government's official web portal to all federal, state and local government web resources and services.